This is the latest recevied weather packets stored in our database for station/object WA1OUI. If no packets are shown the sender has not sent any weather packets the latest 1 day(s).
| Time | Temp. | Humidity | Pressure | Rain* | Wind** | Luminosity | Snow |
|---|---|---|---|---|---|---|---|
| 1777993350 | 21.67° C | 55% | 1008.2 hPa | 0 mm | 0.45 m/s, 16° | 687 W/m² | - |
| 1777993049 | 21.67° C | 56% | 1008.2 hPa | 0 mm | 1.34 m/s, 358° | 688 W/m² | - |
| 1777992748 | 21.11° C | 56% | 1008.2 hPa | 0 mm | 1.34 m/s, 328° | 678 W/m² | - |
| 1777992445 | 20.56° C | 58% | 1008.3 hPa | 0 mm | 0.89 m/s, 17° | 668 W/m² | - |
| 1777992144 | 20.56° C | 58% | 1008.3 hPa | 0 mm | 1.34 m/s, 18° | 661 W/m² | - |
| 1777991840 | 20° C | 60% | 1008.5 hPa | 0 mm | 1.34 m/s, 336° | 579 W/m² | - |
| 1777991538 | 19.44° C | 61% | 1008.4 hPa | 0 mm | 0.89 m/s, 4° | 450 W/m² | - |
| 1777991235 | 19.44° C | 62% | 1008.5 hPa | 0 mm | 0 m/s | 205 W/m² | - |
| 1777990932 | 18.89° C | 63% | 1008.3 hPa | 0 mm | 0 m/s | 138 W/m² | - |
| 1777990630 | 18.33° C | 63% | 1008.4 hPa | 0 mm | 2.24 m/s, 336° | 167 W/m² | - |
| 1777990326 | 18.33° C | 65% | 1008.4 hPa | 0 mm | 0 m/s | 204 W/m² | - |
| 1777990022 | 17.78° C | 66% | 1008.3 hPa | 0 mm | 0 m/s | 217 W/m² | - |
| 1777989720 | 17.78° C | 66% | 1008.2 hPa | 0 mm | 0 m/s | 160 W/m² | - |
| 1777989416 | 17.22° C | 67% | 1008.1 hPa | 0 mm | 0 m/s | 170 W/m² | - |
| 1777989112 | 16.67° C | 67% | 1007.9 hPa | 0 mm | 0 m/s | 191 W/m² | - |
| 1777988808 | 16.67° C | 68% | 1007.9 hPa | 0 mm | 1.34 m/s, 3° | 134 W/m² | - |
| 1777988506 | 16.67° C | 69% | 1008 hPa | 0 mm | 1.34 m/s, 353° | 145 W/m² | - |
| 1777988202 | 16.11° C | 69% | 1008 hPa | 0 mm | 0.89 m/s, 20° | 166 W/m² | - |
| 1777987899 | 15.56° C | 72% | 1008 hPa | 0 mm | 0.89 m/s, 10° | 212 W/m² | - |
| 1777987595 | 15.56° C | 73% | 1008.4 hPa | 0 mm | 0.89 m/s, 344° | 145 W/m² | - |
| 1777987293 | 15.56° C | 73% | 1008.3 hPa | 0 mm | 0 m/s | 99 W/m² | - |
| 1777986989 | 15.56° C | 73% | 1008.2 hPa | 0 mm | 0.89 m/s, 336° | 85 W/m² | - |
| 1777986687 | 15.56° C | 76% | 1008.3 hPa | 0 mm | 0.89 m/s, 2° | 87 W/m² | - |
| 1777986385 | 15° C | 73% | 1008.4 hPa | 0 mm | 0 m/s | 127 W/m² | - |
| 1777986084 | 15° C | 74% | 1008.7 hPa | 0.51 mm | 0.45 m/s, 191° | 146 W/m² | - |
* Rain latest hour (hover to see other rain measurements)
** Current wind speed in m/s (hover to see current wind gust speed)